createdAt,value
2023-05-05T00:01:35.852Z,101237.72
2023-05-05T00:04:02.747Z,101237.31
2023-05-05T00:06:29.670Z,101227.66
2023-05-05T00:08:56.457Z,101231.56
2023-05-05T00:11:23.392Z,101232.47
2023-05-05T00:13:51.529Z,101231.66
2023-05-05T00:16:18.486Z,101220.50
2023-05-05T00:18:47.411Z,101222.44
2023-05-05T00:21:14.368Z,101221.13
2023-05-05T00:23:41.205Z,101211.09
2023-05-05T00:26:08.054Z,101197.50
2023-05-05T00:28:34.937Z,101195.59
2023-05-05T00:31:01.956Z,101199.69
2023-05-05T00:33:28.925Z,101185.47
2023-05-05T00:35:57.168Z,101206.50
2023-05-05T00:38:24.123Z,101201.66
2023-05-05T00:40:50.975Z,101204.34
2023-05-05T00:43:17.797Z,101209.91
2023-05-05T00:45:47.816Z,101214.81
2023-05-05T00:48:17.129Z,101211.41
2023-05-05T00:50:45.092Z,101203.59
2023-05-05T00:53:13.880Z,101209.69
2023-05-05T00:55:41.610Z,101203.97
2023-05-05T00:58:10.023Z,101193.66
2023-05-05T01:00:37.011Z,101195.53
2023-05-05T01:03:05.215Z,101185.88
2023-05-05T01:05:41.829Z,101175.84
2023-05-05T01:08:26.737Z,101185.00
2023-05-05T01:10:58.045Z,101195.00
2023-05-05T01:13:32.601Z,101210.66
2023-05-05T01:16:09.207Z,101204.97
2023-05-05T01:18:44.232Z,101194.09
2023-05-05T01:21:15.475Z,101195.00
2023-05-05T01:24:15.580Z,101195.75
2023-05-05T01:26:59.239Z,101192.84
2023-05-05T01:29:45.181Z,101205.00
2023-05-05T01:32:15.959Z,101202.19
2023-05-05T01:34:53.199Z,101218.00
2023-05-05T01:37:27.112Z,101206.13
2023-05-05T01:39:55.891Z,101205.47
2023-05-05T01:42:24.216Z,101209.56
2023-05-05T01:44:53.190Z,101213.94
2023-05-05T01:47:23.998Z,101219.41
2023-05-05T01:49:52.420Z,101220.22
2023-05-05T01:52:19.984Z,101219.19
2023-05-05T01:54:48.039Z,101197.16
2023-05-05T01:57:16.628Z,101189.38
2023-05-05T01:59:43.564Z,101197.28
2023-05-05T02:02:13.110Z,101208.94
2023-05-05T02:04:44.415Z,101205.31
2023-05-05T02:07:13.219Z,101199.59
2023-05-05T02:09:42.656Z,101207.16
2023-05-05T02:12:10.618Z,101206.59
2023-05-05T02:14:39.533Z,101214.38
2023-05-05T02:17:06.964Z,101209.66
2023-05-05T02:19:38.973Z,101220.88
2023-05-05T02:22:07.434Z,101214.19
2023-05-05T02:24:34.699Z,101220.41
2023-05-05T02:27:06.290Z,101219.44
2023-05-05T02:29:35.799Z,101226.75
2023-05-05T02:32:06.133Z,101222.16
2023-05-05T02:34:36.877Z,101227.50
2023-05-05T02:37:07.286Z,101229.78
2023-05-05T02:39:41.865Z,101232.16
2023-05-05T02:42:11.028Z,101237.13
2023-05-05T02:44:41.854Z,101241.66
2023-05-05T02:47:08.955Z,101237.13
2023-05-05T02:49:35.784Z,101237.66
2023-05-05T02:52:02.804Z,101233.56
2023-05-05T02:54:32.679Z,101229.53
2023-05-05T02:57:00.621Z,101222.16
2023-05-05T02:59:36.714Z,101230.22
2023-05-05T03:02:15.785Z,101228.50
2023-05-05T03:04:46.377Z,101227.25
2023-05-05T03:07:16.056Z,101227.69
2023-05-05T03:09:50.965Z,101215.16
2023-05-05T03:12:22.408Z,101221.84
2023-05-05T03:14:54.306Z,101225.78
2023-05-05T03:17:22.900Z,101219.09
2023-05-05T03:19:50.697Z,101225.19
2023-05-05T03:22:18.036Z,101228.06
2023-05-05T03:24:50.247Z,101231.22
2023-05-05T03:27:17.042Z,101223.13
2023-05-05T03:29:43.882Z,101226.16
2023-05-05T03:32:10.799Z,101229.72
2023-05-05T03:34:37.864Z,101225.28
2023-05-05T03:37:04.745Z,101223.03
2023-05-05T03:39:31.816Z,101218.09
2023-05-05T03:42:00.055Z,101220.38
2023-05-05T03:44:27.055Z,101218.75
2023-05-05T03:46:53.837Z,101217.94
2023-05-05T03:49:20.633Z,101221.47
2023-05-05T03:51:47.660Z,101222.22
2023-05-05T03:54:14.662Z,101223.34
2023-05-05T03:56:41.500Z,101226.16
2023-05-05T03:59:10.115Z,101222.88
2023-05-05T04:01:37.008Z,101226.16
2023-05-05T04:04:04.242Z,101228.97
2023-05-05T04:06:32.155Z,101232.84
2023-05-05T04:08:58.996Z,101238.28
2023-05-05T04:11:26.334Z,101235.66
2023-05-05T04:13:53.204Z,101243.47
2023-05-05T04:16:21.568Z,101239.53
2023-05-05T04:18:48.523Z,101236.94
2023-05-05T04:21:15.429Z,101234.63
2023-05-05T04:23:42.257Z,101237.56
2023-05-05T04:26:09.023Z,101227.44
2023-05-05T04:28:35.924Z,101226.34
2023-05-05T04:31:05.298Z,101227.44
2023-05-05T04:33:33.564Z,101224.97
2023-05-05T04:36:00.482Z,101230.84
2023-05-05T04:38:27.667Z,101230.53
2023-05-05T04:40:54.564Z,101226.97
2023-05-05T04:43:21.469Z,101227.44
2023-05-05T04:45:55.116Z,101239.66
2023-05-05T04:48:22.099Z,101240.16
2023-05-05T04:50:51.466Z,101248.41
2023-05-05T04:53:18.328Z,101252.25
2023-05-05T04:55:45.173Z,101252.13
2023-05-05T04:58:12.010Z,101265.69
2023-05-05T05:00:38.886Z,101262.69
2023-05-05T05:03:05.919Z,101263.31
2023-05-05T05:05:32.930Z,101274.13
2023-05-05T05:08:01.211Z,101268.31
2023-05-05T05:10:28.749Z,101266.31
2023-05-05T05:12:55.854Z,101268.22
2023-05-05T05:15:22.816Z,101268.47
2023-05-05T05:17:49.858Z,101278.44
2023-05-05T05:20:16.777Z,101276.19
2023-05-05T05:22:43.684Z,101285.59
2023-05-05T05:25:11.952Z,101277.56
2023-05-05T05:27:38.784Z,101277.84
2023-05-05T05:30:06.814Z,101286.97
2023-05-05T05:32:34.128Z,101292.78
2023-05-05T05:35:01.292Z,101296.63
2023-05-05T05:37:29.287Z,101294.28
2023-05-05T05:39:57.095Z,101299.69
2023-05-05T05:42:25.420Z,101297.81
2023-05-05T05:44:52.273Z,101293.97
2023-05-05T05:47:19.228Z,101297.59
2023-05-05T05:49:46.245Z,101298.31
2023-05-05T05:52:13.165Z,101305.28
2023-05-05T05:54:40.034Z,101295.63
2023-05-05T05:57:07.041Z,101301.22
2023-05-05T05:59:35.318Z,101299.03
2023-05-05T06:02:02.297Z,101300.41
2023-05-05T06:04:29.308Z,101302.03
2023-05-05T06:06:56.248Z,101295.22
2023-05-05T06:09:23.161Z,101297.00
2023-05-05T06:11:49.962Z,101302.91
2023-05-05T06:14:18.152Z,101301.78
2023-05-05T06:16:47.728Z,101296.47
2023-05-05T06:19:14.624Z,101304.94
2023-05-05T06:21:41.600Z,101306.16
2023-05-05T06:24:08.482Z,101306.53
2023-05-05T06:26:35.359Z,101296.56
2023-05-05T06:29:02.222Z,101297.34
2023-05-05T06:31:29.315Z,101290.09
2023-05-05T06:33:57.605Z,101293.63
2023-05-05T06:36:24.653Z,101284.50
2023-05-05T06:38:51.655Z,101284.34
2023-05-05T06:41:18.556Z,101287.97
2023-05-05T06:43:45.661Z,101294.84
2023-05-05T06:46:12.499Z,101303.06
2023-05-05T06:48:39.530Z,101308.69
2023-05-05T06:51:09.816Z,101311.22
2023-05-05T06:53:36.674Z,101310.59
2023-05-05T06:56:03.747Z,101314.66
2023-05-05T06:58:31.656Z,101320.38
2023-05-05T07:00:58.604Z,101324.16
2023-05-05T07:03:26.867Z,101326.19
2023-05-05T07:05:55.154Z,101328.66
2023-05-05T07:08:23.369Z,101337.59
2023-05-05T07:10:50.177Z,101338.69
2023-05-05T07:13:17.514Z,101345.97
2023-05-05T07:15:46.526Z,101357.34
2023-05-05T07:18:13.580Z,101355.13
2023-05-05T07:20:40.597Z,101351.72
2023-05-05T07:23:07.618Z,101363.22
2023-05-05T07:25:35.973Z,101356.91
2023-05-05T07:28:03.113Z,101358.28
2023-05-05T07:30:30.206Z,101364.84
2023-05-05T07:32:57.250Z,101362.03
2023-05-05T07:35:24.358Z,101359.16
2023-05-05T07:37:54.110Z,101362.53
2023-05-05T07:40:21.540Z,101367.03
2023-05-05T07:42:52.567Z,101359.84
2023-05-05T07:45:19.618Z,101355.88
2023-05-05T07:47:46.595Z,101362.03
2023-05-05T07:50:13.586Z,101362.00
2023-05-05T07:55:10.599Z,101367.44
2023-05-05T07:57:37.668Z,101358.97
2023-05-05T08:00:07.493Z,101354.59
2023-05-05T08:02:34.597Z,101364.31
2023-05-05T08:05:01.461Z,101359.44
2023-05-05T08:07:28.273Z,101361.22
2023-05-05T08:09:55.290Z,101368.03
2023-05-05T08:12:22.171Z,101366.00
2023-05-05T08:14:49.086Z,101365.44
2023-05-05T08:17:17.393Z,101357.06
2023-05-05T08:19:44.208Z,101370.97
2023-05-05T08:22:11.056Z,101356.41
2023-05-05T08:24:37.932Z,101359.34
2023-05-05T08:27:04.766Z,101367.88
2023-05-05T08:29:31.555Z,101367.09
2023-05-05T08:31:58.524Z,101371.16
2023-05-05T08:34:26.850Z,101369.53
2023-05-05T08:36:53.841Z,101363.00
2023-05-05T08:39:20.686Z,101363.84
2023-05-05T08:41:47.680Z,101366.69
2023-05-05T08:44:14.612Z,101363.41
2023-05-05T08:46:42.465Z,101366.28
2023-05-05T08:49:16.092Z,101362.94
2023-05-05T08:51:45.639Z,101362.56
2023-05-05T08:54:19.344Z,101370.28
2023-05-05T08:56:46.732Z,101366.28
2023-05-05T08:59:14.695Z,101371.56
2023-05-05T09:01:49.762Z,101367.09
2023-05-05T09:04:19.051Z,101365.06
2023-05-05T09:07:05.761Z,101371.94
2023-05-05T09:09:40.402Z,101378.88
2023-05-05T09:12:07.463Z,101376.84
2023-05-05T09:14:46.510Z,101378.03
2023-05-05T09:17:28.419Z,101380.50
2023-05-05T09:20:16.375Z,101374.31
2023-05-05T09:22:50.787Z,101380.78
2023-05-05T09:25:23.172Z,101381.97
2023-05-05T09:27:54.909Z,101379.88
2023-05-05T09:30:36.098Z,101374.75
2023-05-05T09:33:08.850Z,101368.69
2023-05-05T09:36:05.204Z,101373.94
2023-05-05T09:38:36.913Z,101364.16
2023-05-05T09:41:09.006Z,101364.22
2023-05-05T09:44:00.810Z,101360.19
2023-05-05T09:46:31.191Z,101371.97
2023-05-05T09:49:12.383Z,101370.72
2023-05-05T09:51:40.484Z,101372.72
2023-05-05T09:54:09.214Z,101367.44
2023-05-05T09:56:42.824Z,101368.72
2023-05-05T09:59:10.436Z,101367.47
2023-05-05T10:01:37.930Z,101363.00
2023-05-05T10:04:05.144Z,101357.72
2023-05-05T10:06:42.989Z,101373.56
2023-05-05T10:09:11.238Z,101373.16
2023-05-05T10:11:39.621Z,101371.97
2023-05-05T10:14:07.830Z,101367.91
2023-05-05T10:16:36.198Z,101373.19
2023-05-05T10:19:04.430Z,101378.47
2023-05-05T10:21:37.446Z,101376.44
2023-05-05T10:24:09.450Z,101371.16
2023-05-05T10:26:40.862Z,101380.06
2023-05-05T10:29:13.586Z,101377.94
2023-05-05T10:31:47.158Z,101372.31
2023-05-05T10:34:18.177Z,101367.88
2023-05-05T10:36:45.536Z,101370.34
2023-05-05T10:39:15.689Z,101367.06
2023-05-05T10:41:44.729Z,101363.81
2023-05-05T10:44:12.272Z,101358.94
2023-05-05T10:46:39.953Z,101354.81
2023-05-05T10:49:15.548Z,101351.19
2023-05-05T10:51:50.025Z,101353.16
2023-05-05T10:54:24.757Z,101356.38
2023-05-05T10:56:54.724Z,101355.50
2023-05-05T10:59:41.503Z,101343.47
2023-05-05T11:02:27.315Z,101345.16
2023-05-05T11:05:14.444Z,101339.03
2023-05-05T11:07:42.012Z,101335.38
2023-05-05T11:10:10.696Z,101333.75
2023-05-05T11:13:15.359Z,101331.72
2023-05-05T11:15:43.699Z,101335.75
2023-05-05T11:18:34.018Z,101332.56
2023-05-05T11:21:15.545Z,101325.66
2023-05-05T11:23:47.545Z,101326.00
2023-05-05T11:26:15.698Z,101322.69
2023-05-05T11:29:02.611Z,101317.00
2023-05-05T11:31:31.839Z,101316.97
2023-05-05T11:34:25.003Z,101312.09
2023-05-05T11:36:53.131Z,101308.06
2023-05-05T11:39:25.311Z,101301.91
2023-05-05T11:42:17.323Z,101303.94
2023-05-05T11:44:44.300Z,101313.38
2023-05-05T11:47:31.814Z,101310.09
2023-05-05T11:49:59.433Z,101302.81
2023-05-05T11:52:27.336Z,101309.31
2023-05-05T11:54:59.773Z,101317.84
2023-05-05T11:57:30.104Z,101311.41
2023-05-05T12:00:00.542Z,101322.72
2023-05-05T12:02:29.540Z,101315.00
2023-05-05T12:04:59.173Z,101310.81
2023-05-05T12:07:27.413Z,101313.66
2023-05-05T12:09:55.500Z,101309.13
2023-05-05T12:12:34.565Z,101314.06
2023-05-05T12:15:01.507Z,101318.63
2023-05-05T12:17:40.161Z,101308.69
2023-05-05T12:20:10.590Z,101304.28
2023-05-05T12:22:38.260Z,101298.47
2023-05-05T12:25:07.045Z,101298.91
2023-05-05T12:27:35.458Z,101299.81
2023-05-05T12:30:14.510Z,101292.16
2023-05-05T12:32:41.842Z,101299.78
2023-05-05T12:35:11.209Z,101297.50
2023-05-05T12:41:46.333Z,101313.66
2023-05-05T12:45:59.757Z,101308.59
2023-05-05T12:48:26.702Z,101308.00
2023-05-05T12:51:43.552Z,101305.34
2023-05-05T12:54:19.872Z,101299.41
2023-05-05T12:56:47.732Z,101302.56
2023-05-05T12:59:29.620Z,101309.09
2023-05-05T13:01:58.468Z,101312.88
2023-05-05T13:04:27.638Z,101306.16
2023-05-05T13:07:11.875Z,101292.72
2023-05-05T13:09:40.571Z,101303.25
2023-05-05T13:12:12.442Z,101305.47
2023-05-05T13:14:39.596Z,101292.75
2023-05-05T13:17:06.898Z,101305.81
2023-05-05T13:19:45.614Z,101303.19
2023-05-05T13:22:16.007Z,101291.25
2023-05-05T13:24:51.815Z,101306.91
2023-05-05T13:27:20.094Z,101303.00
2023-05-05T13:29:46.882Z,101298.09
2023-05-05T13:32:13.753Z,101296.28
2023-05-05T13:34:41.546Z,101290.31
2023-05-05T13:37:08.813Z,101290.03
2023-05-05T13:39:37.022Z,101294.56
2023-05-05T13:42:05.587Z,101291.81
2023-05-05T13:44:32.581Z,101289.00
2023-05-05T13:46:59.573Z,101282.56
2023-05-05T13:49:27.216Z,101283.56
2023-05-05T13:51:55.228Z,101292.16
2023-05-05T13:54:22.149Z,101283.28
2023-05-05T13:56:49.074Z,101281.75
2023-05-05T13:59:17.438Z,101286.56
2023-05-05T14:01:44.224Z,101278.91
2023-05-05T14:04:11.266Z,101280.38
2023-05-05T14:06:38.211Z,101280.03
2023-05-05T14:09:08.051Z,101285.91
2023-05-05T14:11:35.054Z,101269.66
2023-05-05T14:14:01.950Z,101278.78
2023-05-05T14:16:30.389Z,101284.47
2023-05-05T14:18:57.301Z,101277.03
2023-05-05T14:21:24.225Z,101277.66
2023-05-05T14:23:51.088Z,101285.13
2023-05-05T14:26:17.994Z,101282.25
2023-05-05T14:28:46.749Z,101280.13
2023-05-05T14:31:15.259Z,101274.38
2023-05-05T14:33:43.421Z,101278.06
2023-05-05T14:36:10.329Z,101267.63
2023-05-05T14:38:38.942Z,101258.13
2023-05-05T14:41:05.975Z,101262.22
2023-05-05T14:43:42.214Z,101244.47
2023-05-05T14:46:26.344Z,101244.91
2023-05-05T14:48:54.690Z,101247.75
2023-05-05T14:54:38.290Z,101251.34
2023-05-05T14:57:06.771Z,101249.19
2023-05-05T14:59:33.684Z,101256.44
2023-05-05T15:02:25.742Z,101253.09
2023-05-05T15:04:54.048Z,101239.16
2023-05-05T15:07:33.465Z,101248.72
2023-05-05T15:10:00.363Z,101245.63
2023-05-05T15:16:21.647Z,101247.59
2023-05-05T15:18:54.124Z,101233.53
2023-05-05T15:21:22.394Z,101237.22
2023-05-05T15:23:49.212Z,101236.22
2023-05-05T15:26:16.097Z,101231.50
2023-05-05T15:28:43.007Z,101229.09
2023-05-05T15:31:10.166Z,101232.75
2023-05-05T15:33:37.106Z,101238.25
2023-05-05T15:36:04.207Z,101243.63
2023-05-05T15:39:01.153Z,101241.66
2023-05-05T15:46:41.999Z,101243.69
2023-05-05T15:49:10.744Z,101241.66
2023-05-05T15:52:50.082Z,101233.91
2023-05-05T15:55:39.224Z,101227.81
2023-05-05T15:58:06.044Z,101223.94
2023-05-05T16:01:04.470Z,101218.91
2023-05-05T16:06:32.454Z,101222.41
2023-05-05T16:08:59.378Z,101231.31
2023-05-05T16:11:38.029Z,101243.22
2023-05-05T16:14:06.259Z,101250.78
2023-05-05T16:16:33.127Z,101252.13
2023-05-05T16:19:29.661Z,101260.09
2023-05-05T16:22:07.768Z,101259.59
2023-05-05T16:25:19.386Z,101262.91
2023-05-05T16:28:27.399Z,101259.28
2023-05-05T16:35:21.074Z,101260.88
2023-05-05T16:37:54.326Z,101250.94
2023-05-05T16:40:31.441Z,101252.00
2023-05-05T16:43:07.659Z,101253.09
2023-05-05T16:46:04.133Z,101262.66
2023-05-05T16:48:34.610Z,101249.34
2023-05-05T16:51:25.733Z,101259.72
2023-05-05T17:01:35.747Z,101250.25
2023-05-05T17:04:02.895Z,101242.25
2023-05-05T17:06:32.010Z,101248.91
2023-05-05T17:08:59.197Z,101247.25
2023-05-05T17:11:26.714Z,101245.63
2023-05-05T17:13:53.792Z,101240.81
2023-05-05T17:16:20.859Z,101234.41
2023-05-05T17:18:49.209Z,101238.56
2023-05-05T17:21:16.089Z,101238.59
2023-05-05T17:23:42.932Z,101239.38
2023-05-05T17:26:11.994Z,101236.94
2023-05-05T17:28:38.821Z,101238.50
2023-05-05T17:31:06.105Z,101235.66
2023-05-05T17:33:32.947Z,101233.25
2023-05-05T17:36:01.315Z,101230.81
2023-05-05T17:38:28.354Z,101229.22
2023-05-05T17:40:55.174Z,101238.16
2023-05-05T17:43:22.197Z,101240.63
2023-05-05T17:45:49.171Z,101235.44
2023-05-05T17:48:16.258Z,101236.25
2023-05-05T17:50:43.612Z,101236.66
2023-05-05T17:53:12.581Z,101246.41
2023-05-05T17:55:39.576Z,101237.03
2023-05-05T17:58:06.428Z,101235.03
2023-05-05T18:00:33.310Z,101246.44
2023-05-05T18:03:01.267Z,101245.19
2023-05-05T18:05:28.239Z,101239.09
2023-05-05T18:07:55.096Z,101240.34
2023-05-05T18:10:23.338Z,101244.00
2023-05-05T18:12:50.336Z,101246.84
2023-05-05T18:15:17.168Z,101246.03
2023-05-05T18:17:44.548Z,101245.22
2023-05-05T18:20:11.980Z,101247.63
2023-05-05T18:22:38.953Z,101250.47
2023-05-05T18:25:07.973Z,101251.28
2023-05-05T18:27:36.928Z,101256.13
2023-05-05T18:30:04.888Z,101249.63
2023-05-05T18:32:31.894Z,101254.91
2023-05-05T18:34:58.866Z,101247.97
2023-05-05T18:37:25.754Z,101243.88
2023-05-05T18:39:52.624Z,101243.03
2023-05-05T18:42:19.477Z,101257.94
2023-05-05T18:44:47.793Z,101261.63
2023-05-05T18:47:14.596Z,101256.75
2023-05-05T18:49:41.443Z,101251.44
2023-05-05T18:52:08.294Z,101262.78
2023-05-05T18:54:37.473Z,101262.34
2023-05-05T18:57:04.752Z,101258.25
2023-05-05T18:59:31.781Z,101266.72
2023-05-05T19:02:00.134Z,101265.03
2023-05-05T19:04:31.326Z,101268.66
2023-05-05T19:06:58.821Z,101270.69
2023-05-05T19:09:26.137Z,101276.72
2023-05-05T19:11:53.034Z,101270.59
2023-05-05T19:14:19.974Z,101268.19
2023-05-05T19:16:47.070Z,101269.34
2023-05-05T19:19:15.363Z,101271.22
2023-05-05T19:21:42.201Z,101265.47
2023-05-05T19:24:09.745Z,101273.03
2023-05-05T19:26:36.693Z,101263.25
2023-05-05T19:29:03.678Z,101272.53
2023-05-05T19:31:31.382Z,101272.97
2023-05-05T19:34:00.752Z,101270.53
2023-05-05T19:36:31.687Z,101266.41
2023-05-05T19:39:00.600Z,101271.59
2023-05-05T19:41:27.496Z,101268.22
2023-05-05T19:43:54.383Z,101272.84
2023-05-05T19:46:21.320Z,101281.97
2023-05-05T19:48:48.724Z,101274.16
2023-05-05T19:51:15.638Z,101279.50
2023-05-05T19:53:43.996Z,101281.03
2023-05-05T19:56:11.607Z,101285.88
2023-05-05T19:58:53.751Z,101289.22
2023-05-05T20:01:20.785Z,101295.69
2023-05-05T20:03:47.802Z,101296.78
2023-05-05T20:06:14.803Z,101296.78
2023-05-05T20:08:43.112Z,101296.34
2023-05-05T20:11:10.046Z,101296.31
2023-05-05T20:13:38.242Z,101303.63
2023-05-05T20:16:06.069Z,101297.09
2023-05-05T20:18:33.237Z,101297.63
2023-05-05T20:21:00.414Z,101292.28
2023-05-05T20:23:27.717Z,101297.59
2023-05-05T20:25:56.807Z,101294.22
2023-05-05T20:28:23.968Z,101294.59
2023-05-05T20:30:51.060Z,101293.53
2023-05-05T20:33:18.001Z,101295.31
2023-05-05T20:35:44.917Z,101290.16
2023-05-05T20:38:11.846Z,101297.66
2023-05-05T20:40:38.883Z,101284.88
2023-05-05T20:43:07.307Z,101289.72
2023-05-05T20:45:34.440Z,101289.56
2023-05-05T20:48:01.832Z,101298.53
2023-05-05T20:50:28.788Z,101300.09
2023-05-05T20:52:55.826Z,101297.53
2023-05-05T20:55:22.925Z,101299.28
2023-05-05T20:57:49.778Z,101295.31
2023-05-05T21:00:24.102Z,101289.09
2023-05-05T21:02:51.011Z,101295.91
2023-05-05T21:05:18.238Z,101294.53
2023-05-05T21:07:45.341Z,101295.00
2023-05-05T21:10:12.438Z,101293.16
2023-05-05T21:12:40.498Z,101294.81
2023-05-05T21:15:08.617Z,101293.09
2023-05-05T21:17:37.097Z,101282.81
2023-05-05T21:20:04.499Z,101285.09
2023-05-05T21:22:31.456Z,101290.06
2023-05-05T21:25:11.765Z,101287.63
2023-05-05T21:27:38.667Z,101294.53
2023-05-05T21:30:09.407Z,101290.97
2023-05-05T21:32:39.434Z,101294.22
2023-05-05T21:35:07.997Z,101294.31
2023-05-05T21:37:36.666Z,101292.72
2023-05-05T21:40:03.878Z,101291.84
2023-05-05T21:42:30.965Z,101304.09
2023-05-05T21:44:57.751Z,101294.44
2023-05-05T21:47:24.948Z,101299.47
2023-05-05T21:49:53.162Z,101296.44
2023-05-05T21:52:20.098Z,101302.59
2023-05-05T21:54:46.955Z,101305.13
2023-05-05T21:57:13.817Z,101291.41
2023-05-05T21:59:41.352Z,101291.00
2023-05-05T22:02:08.185Z,101297.56
2023-05-05T22:04:35.090Z,101292.97
2023-05-05T22:07:03.324Z,101298.78
2023-05-05T22:09:30.278Z,101295.72
2023-05-05T22:11:57.510Z,101295.19
2023-05-05T22:14:24.460Z,101292.47
2023-05-05T22:16:51.398Z,101297.16
2023-05-05T22:19:18.221Z,101291.59
2023-05-05T22:21:45.090Z,101289.25
2023-05-05T22:24:13.388Z,101293.22
2023-05-05T22:26:43.364Z,101288.31
2023-05-05T22:29:10.677Z,101289.78
2023-05-05T22:31:37.799Z,101282.50
2023-05-05T22:34:04.860Z,101287.03
2023-05-05T22:36:31.838Z,101291.72
2023-05-05T22:38:59.079Z,101291.06
2023-05-05T22:41:27.296Z,101288.75
2023-05-05T22:43:54.190Z,101289.66
2023-05-05T22:46:21.062Z,101284.34
2023-05-05T22:48:48.001Z,101282.16
2023-05-05T22:51:14.856Z,101280.50
2023-05-05T22:53:41.830Z,101278.72
2023-05-05T22:56:08.772Z,101283.28
2023-05-05T22:58:37.044Z,101283.63
2023-05-05T23:01:04.200Z,101285.59
2023-05-05T23:03:31.133Z,101285.69
2023-05-05T23:05:57.999Z,101286.94
2023-05-05T23:08:24.829Z,101283.69
2023-05-05T23:10:51.695Z,101289.38
2023-05-05T23:13:18.551Z,101284.28
2023-05-05T23:15:46.926Z,101286.22
2023-05-05T23:18:13.779Z,101288.56
2023-05-05T23:20:40.793Z,101277.16
2023-05-05T23:23:07.712Z,101276.25
2023-05-05T23:25:34.616Z,101275.22
2023-05-05T23:28:01.551Z,101275.94
2023-05-05T23:30:28.662Z,101277.66
2023-05-05T23:32:58.258Z,101275.44
2023-05-05T23:35:26.540Z,101276.53
2023-05-05T23:37:53.368Z,101270.84
2023-05-05T23:40:20.404Z,101269.19
2023-05-05T23:42:47.205Z,101267.41
2023-05-05T23:45:14.070Z,101275.69
2023-05-05T23:47:40.937Z,101269.44
2023-05-05T23:50:10.036Z,101281.09
2023-05-05T23:52:36.910Z,101275.94
2023-05-05T23:55:04.196Z,101284.00
2023-05-05T23:57:31.090Z,101279.03
2023-05-05T23:59:58.370Z,101270.97
